createdAt,value
2018-07-07T00:01:30.706Z,14.13
2018-07-07T00:04:00.316Z,23.53
2018-07-07T00:06:30.671Z,13.80
2018-07-07T00:09:00.056Z,12.63
2018-07-07T00:11:29.174Z,13.63
2018-07-07T00:13:58.739Z,28.40
2018-07-07T00:16:29.371Z,17.13
2018-07-07T00:18:59.077Z,22.47
2018-07-07T00:21:29.302Z,16.47
2018-07-07T00:23:58.439Z,14.80
2018-07-07T00:26:27.708Z,23.70
2018-07-07T00:28:57.207Z,14.43
2018-07-07T00:31:26.325Z,16.27
2018-07-07T00:33:55.313Z,14.43
2018-07-07T00:36:24.523Z,10.60
2018-07-07T00:38:53.614Z,18.10
2018-07-07T00:41:22.988Z,15.67
2018-07-07T00:43:54.300Z,13.07
2018-07-07T00:46:23.638Z,15.87
2018-07-07T00:48:52.909Z,7.80
2018-07-07T00:51:22.638Z,10.43
2018-07-07T00:53:51.721Z,11.17
2018-07-07T00:56:20.986Z,18.33
2018-07-07T00:58:50.353Z,12.93
2018-07-07T01:01:23.170Z,11.07
2018-07-07T01:03:52.470Z,18.50
2018-07-07T01:06:28.143Z,9.77
2018-07-07T01:08:58.038Z,17.23
2018-07-07T01:11:28.314Z,19.57
2018-07-07T01:13:57.517Z,17.50
2018-07-07T01:16:26.706Z,21.23
2018-07-07T01:18:55.987Z,25.53
2018-07-07T01:21:25.238Z,13.13
2018-07-07T01:23:54.567Z,20.97
2018-07-07T01:26:24.358Z,17.57
2018-07-07T01:28:53.706Z,33.93
2018-07-07T01:31:22.726Z,16.60
2018-07-07T01:33:51.793Z,21.00
2018-07-07T01:36:21.098Z,16.63
2018-07-07T01:38:50.393Z,19.37
2018-07-07T01:41:19.605Z,16.20
2018-07-07T01:43:49.006Z,15.67
2018-07-07T01:46:18.214Z,18.83
2018-07-07T01:48:47.419Z,19.80
2018-07-07T01:51:16.710Z,14.83
2018-07-07T01:53:46.350Z,11.70
2018-07-07T01:56:15.546Z,18.30
2018-07-07T01:58:44.678Z,17.63
2018-07-07T02:01:13.704Z,14.30
2018-07-07T02:03:42.934Z,18.57
2018-07-07T02:06:12.111Z,13.13
2018-07-07T02:08:41.285Z,21.87
2018-07-07T02:11:10.311Z,12.50
2018-07-07T02:13:39.333Z,20.30
2018-07-07T02:16:08.822Z,23.40
2018-07-07T02:18:37.946Z,13.23
2018-07-07T02:21:07.266Z,20.33
2018-07-07T02:23:36.327Z,12.33
2018-07-07T02:26:05.642Z,18.10
2018-07-07T02:28:34.960Z,20.47
2018-07-07T02:31:04.377Z,19.70
2018-07-07T02:33:33.350Z,16.97
2018-07-07T02:36:02.623Z,21.47
2018-07-07T02:38:31.970Z,18.07
2018-07-07T02:41:01.072Z,19.63
2018-07-07T02:43:30.326Z,12.03
2018-07-07T02:45:59.683Z,22.43
2018-07-07T02:48:28.937Z,18.03
2018-07-07T02:50:58.216Z,14.00
2018-07-07T02:53:27.426Z,20.60
2018-07-07T02:55:56.466Z,20.03
2018-07-07T02:58:25.718Z,15.07
2018-07-07T03:00:55.075Z,18.43
2018-07-07T03:03:24.711Z,24.97
2018-07-07T03:05:53.786Z,16.10
2018-07-07T03:08:22.827Z,13.40
2018-07-07T03:10:52.079Z,21.87
2018-07-07T03:13:21.557Z,17.93
2018-07-07T03:15:50.906Z,19.47
2018-07-07T03:18:20.059Z,24.90
2018-07-07T03:20:50.196Z,15.20
2018-07-07T03:23:22.313Z,24.87
2018-07-07T03:25:51.475Z,28.17
2018-07-07T03:28:27.130Z,20.50
2018-07-07T03:30:56.542Z,19.60
2018-07-07T03:33:25.674Z,14.03
2018-07-07T03:35:54.790Z,18.40
2018-07-07T03:38:23.947Z,21.47
2018-07-07T03:40:53.205Z,22.53
2018-07-07T03:43:22.370Z,20.20
2018-07-07T03:45:51.620Z,15.17
2018-07-07T03:48:20.740Z,20.67
2018-07-07T03:50:50.074Z,14.83
2018-07-07T03:53:19.366Z,18.33
2018-07-07T03:55:49.642Z,26.17
2018-07-07T03:58:21.036Z,30.93
2018-07-07T04:03:46.191Z,21.40
2018-07-07T04:06:15.713Z,25.47
2018-07-07T04:08:44.840Z,21.57
2018-07-07T04:11:14.179Z,24.57
2018-07-07T04:13:43.475Z,17.20
2018-07-07T04:16:12.590Z,24.30
2018-07-07T04:18:41.778Z,22.07
2018-07-07T04:21:10.966Z,14.33
2018-07-07T04:23:40.485Z,26.60
2018-07-07T04:26:09.786Z,15.73
2018-07-07T04:28:38.977Z,21.13
2018-07-07T04:31:08.065Z,21.83
2018-07-07T04:33:37.248Z,18.80
2018-07-07T04:36:06.266Z,20.87
2018-07-07T04:38:35.492Z,26.97
2018-07-07T04:41:04.661Z,24.93
2018-07-07T04:43:33.866Z,23.93
2018-07-07T04:46:03.213Z,19.43
2018-07-07T04:48:32.337Z,20.40
2018-07-07T04:51:01.458Z,18.23
2018-07-07T04:53:30.707Z,28.50
2018-07-07T04:56:02.859Z,18.40
2018-07-07T04:58:32.107Z,18.13
2018-07-07T05:01:01.200Z,20.43
2018-07-07T05:03:30.476Z,20.80
2018-07-07T05:05:59.739Z,21.37
2018-07-07T05:08:28.875Z,22.70
2018-07-07T05:10:58.166Z,18.77
2018-07-07T05:13:27.302Z,18.40
2018-07-07T05:15:56.395Z,24.87
2018-07-07T05:18:25.575Z,15.63
2018-07-07T05:20:54.803Z,20.93
2018-07-07T05:23:23.994Z,16.80
2018-07-07T05:25:53.471Z,26.17
2018-07-07T05:28:23.510Z,9.73
2018-07-07T05:30:52.714Z,24.17
2018-07-07T05:33:22.206Z,14.37
2018-07-07T05:35:51.450Z,22.40
2018-07-07T05:38:20.749Z,23.43
2018-07-07T05:40:49.855Z,19.93
2018-07-07T05:43:18.998Z,19.00
2018-07-07T05:45:48.223Z,27.00
2018-07-07T05:48:17.395Z,20.33
2018-07-07T05:50:46.642Z,13.93
2018-07-07T05:53:15.906Z,21.80
2018-07-07T05:55:45.138Z,20.27
2018-07-07T05:58:14.275Z,21.17
2018-07-07T06:00:43.506Z,24.20
2018-07-07T06:03:12.762Z,25.67
2018-07-07T06:05:41.807Z,15.70
2018-07-07T06:08:11.094Z,23.67
2018-07-07T06:10:40.400Z,39.03
2018-07-07T06:13:09.656Z,17.93
2018-07-07T06:15:38.895Z,24.37
2018-07-07T06:18:08.084Z,18.40
2018-07-07T06:20:37.393Z,19.07
2018-07-07T06:23:06.483Z,15.70
2018-07-07T06:25:35.783Z,19.17
2018-07-07T06:28:05.067Z,18.20
2018-07-07T06:30:34.415Z,22.47
2018-07-07T06:33:03.627Z,25.20
2018-07-07T06:35:32.903Z,23.53
2018-07-07T06:38:02.081Z,16.50
2018-07-07T06:40:31.235Z,29.83
2018-07-07T06:43:00.365Z,20.47
2018-07-07T06:45:29.839Z,18.47
2018-07-07T06:48:00.131Z,21.20
2018-07-07T06:50:29.586Z,21.10
2018-07-07T06:52:59.322Z,12.93
2018-07-07T06:55:30.304Z,18.63
2018-07-07T06:57:59.445Z,20.43
2018-07-07T07:00:28.634Z,23.70
2018-07-07T07:02:57.990Z,30.27
2018-07-07T07:05:27.250Z,19.60
2018-07-07T07:07:56.357Z,18.23
2018-07-07T07:10:26.619Z,20.57
2018-07-07T07:12:55.895Z,19.53
2018-07-07T07:15:25.315Z,16.33
2018-07-07T07:17:54.606Z,15.10
2018-07-07T07:20:24.319Z,16.73
2018-07-07T07:22:53.964Z,23.07
2018-07-07T07:25:23.723Z,13.37
2018-07-07T07:27:53.450Z,16.83
2018-07-07T07:30:22.730Z,19.87
2018-07-07T07:32:52.021Z,14.00
2018-07-07T07:35:21.811Z,19.20
2018-07-07T07:37:51.106Z,17.03
2018-07-07T07:40:20.784Z,15.37
2018-07-07T07:42:51.075Z,22.83
2018-07-07T07:45:24.583Z,21.80
2018-07-07T07:47:54.185Z,19.80
2018-07-07T07:50:23.879Z,18.73
2018-07-07T07:52:53.335Z,13.50
2018-07-07T07:55:22.779Z,19.43
2018-07-07T07:57:53.347Z,19.43
2018-07-07T08:00:24.103Z,18.53
2018-07-07T08:02:55.126Z,12.83
2018-07-07T08:05:25.649Z,17.57
2018-07-07T08:07:55.705Z,18.27
2018-07-07T08:10:26.119Z,20.03
2018-07-07T08:12:58.788Z,20.17
2018-07-07T08:15:28.784Z,16.47
2018-07-07T08:17:59.327Z,14.73
2018-07-07T08:20:28.437Z,26.77
2018-07-07T08:22:57.617Z,12.77
2018-07-07T08:25:29.219Z,16.47
2018-07-07T08:27:59.203Z,18.77
2018-07-07T08:30:28.402Z,15.40
2018-07-07T08:32:58.976Z,15.03
2018-07-07T08:35:29.810Z,13.03
2018-07-07T08:38:04.264Z,16.40
2018-07-07T08:40:35.835Z,13.27
2018-07-07T08:43:07.093Z,18.70
2018-07-07T08:45:38.364Z,13.50
2018-07-07T08:48:08.244Z,16.00
2018-07-07T08:50:37.519Z,15.00
2018-07-07T08:53:06.832Z,15.87
2018-07-07T08:55:37.052Z,18.03
2018-07-07T08:58:08.459Z,18.67
2018-07-07T09:00:39.635Z,24.07
2018-07-07T09:03:12.215Z,18.93
2018-07-07T09:05:43.362Z,16.63
2018-07-07T09:08:15.791Z,16.90
2018-07-07T09:10:45.908Z,15.80
2018-07-07T09:13:17.050Z,17.73
2018-07-07T09:15:50.350Z,17.43
2018-07-07T09:18:23.856Z,21.70
2018-07-07T09:20:53.939Z,23.53
2018-07-07T09:23:29.643Z,13.73
2018-07-07T09:26:00.291Z,15.80
2018-07-07T09:28:31.487Z,18.83
2018-07-07T09:31:01.345Z,16.20
2018-07-07T09:33:31.512Z,9.10
2018-07-07T09:36:06.979Z,17.63
2018-07-07T09:38:39.896Z,12.40
2018-07-07T09:41:11.278Z,18.63
2018-07-07T09:43:41.976Z,13.20
2018-07-07T09:46:17.815Z,20.20
2018-07-07T09:48:49.406Z,7.37
2018-07-07T09:51:25.642Z,14.83
2018-07-07T09:53:59.643Z,10.90
2018-07-07T09:56:30.736Z,8.63
2018-07-07T09:59:01.521Z,16.70
2018-07-07T10:01:34.687Z,10.33
2018-07-07T10:04:08.822Z,12.33
2018-07-07T10:06:42.382Z,9.33
2018-07-07T10:09:15.578Z,13.80
2018-07-07T10:11:50.653Z,15.00
2018-07-07T10:14:29.685Z,7.07
2018-07-07T10:17:01.252Z,11.53
2018-07-07T10:19:34.646Z,7.73
2018-07-07T10:22:08.218Z,13.20
2018-07-07T10:24:43.329Z,14.10
2018-07-07T10:27:14.152Z,8.13
2018-07-07T10:29:46.082Z,14.13
2018-07-07T10:32:15.929Z,13.63
2018-07-07T10:34:49.850Z,10.27
2018-07-07T10:37:22.537Z,7.30
2018-07-07T10:40:01.670Z,11.40
2018-07-07T10:42:37.254Z,9.93
2018-07-07T10:45:08.284Z,11.90
2018-07-07T10:47:39.409Z,11.00
2018-07-07T10:50:10.079Z,15.67
2018-07-07T10:52:40.427Z,11.93
2018-07-07T10:55:12.910Z,7.97
2018-07-07T10:57:46.074Z,17.53
2018-07-07T11:00:18.820Z,11.17
2018-07-07T11:02:49.684Z,12.70
2018-07-07T11:05:19.579Z,19.83
2018-07-07T11:07:52.737Z,8.23
2018-07-07T11:10:22.831Z,7.03
2018-07-07T11:12:53.271Z,7.93
2018-07-07T11:15:26.424Z,7.47
2018-07-07T11:18:04.235Z,10.43
2018-07-07T11:20:38.774Z,12.20
2018-07-07T11:23:13.293Z,10.33
2018-07-07T11:25:44.349Z,4.33
2018-07-07T11:28:14.461Z,6.83
2018-07-07T11:30:44.151Z,6.30
2018-07-07T11:33:19.502Z,8.60
2018-07-07T11:35:50.205Z,6.80
2018-07-07T11:38:20.814Z,10.43
2018-07-07T11:40:54.323Z,10.90
2018-07-07T11:43:34.464Z,5.17
2018-07-07T11:46:06.938Z,6.27
2018-07-07T11:48:39.483Z,8.70
2018-07-07T11:51:11.593Z,6.77
2018-07-07T11:53:45.424Z,5.77
2018-07-07T11:56:16.225Z,8.50
2018-07-07T11:58:48.256Z,7.50
2018-07-07T12:01:20.886Z,6.87
2018-07-07T12:03:52.478Z,4.70
2018-07-07T12:06:28.133Z,4.33
2018-07-07T12:09:01.771Z,3.80
2018-07-07T12:11:32.737Z,6.07
2018-07-07T12:14:03.581Z,9.23
2018-07-07T12:16:40.161Z,4.50
2018-07-07T12:19:10.061Z,8.53
2018-07-07T12:21:42.255Z,4.20
2018-07-07T12:24:16.662Z,7.60
2018-07-07T12:26:54.062Z,5.40
2018-07-07T12:29:37.189Z,5.03
2018-07-07T12:32:16.421Z,7.80
2018-07-07T12:34:50.230Z,6.00
2018-07-07T12:37:34.546Z,8.23
2018-07-07T12:40:06.563Z,5.83
2018-07-07T12:42:36.704Z,6.70
2018-07-07T12:45:12.042Z,11.77
2018-07-07T12:47:47.805Z,5.80
2018-07-07T12:50:25.815Z,5.80
2018-07-07T12:53:00.230Z,3.40
2018-07-07T12:55:35.632Z,6.63
2018-07-07T12:58:11.063Z,4.43
2018-07-07T13:00:46.005Z,2.57
2018-07-07T13:03:15.724Z,12.00
2018-07-07T13:05:47.938Z,4.20
2018-07-07T13:08:21.068Z,6.83
2018-07-07T13:10:58.013Z,4.33
2018-07-07T13:13:28.874Z,3.90
2018-07-07T13:16:03.865Z,7.17
2018-07-07T13:18:35.253Z,5.20
2018-07-07T13:21:11.635Z,3.70
2018-07-07T13:23:43.304Z,3.13
2018-07-07T13:26:16.815Z,5.83
2018-07-07T13:28:52.501Z,5.90
2018-07-07T13:31:25.155Z,2.90
2018-07-07T13:34:01.395Z,3.23
2018-07-07T13:39:15.262Z,5.20
2018-07-07T13:41:53.648Z,6.40
2018-07-07T13:44:25.934Z,4.37
2018-07-07T13:47:08.625Z,4.60
2018-07-07T13:52:43.945Z,3.00
2018-07-07T13:55:19.385Z,9.23
2018-07-07T13:57:53.927Z,3.53
2018-07-07T14:00:35.457Z,3.90
2018-07-07T14:03:08.720Z,9.57
2018-07-07T14:05:43.962Z,2.60
2018-07-07T14:08:22.370Z,4.30
2018-07-07T14:10:52.400Z,5.10
2018-07-07T14:13:28.569Z,6.20
2018-07-07T14:16:01.870Z,2.83
2018-07-07T14:18:34.024Z,3.73
2018-07-07T14:21:05.584Z,3.70
2018-07-07T14:23:38.245Z,5.83
2018-07-07T14:26:14.273Z,3.67
2018-07-07T14:28:45.850Z,10.07
2018-07-07T14:31:23.151Z,7.33
2018-07-07T14:34:04.807Z,5.50
2018-07-07T14:36:38.744Z,4.03
2018-07-07T14:39:12.246Z,10.00
2018-07-07T14:41:53.551Z,16.73
2018-07-07T14:44:30.696Z,5.77
2018-07-07T14:47:03.091Z,5.67
2018-07-07T14:49:37.845Z,6.20
2018-07-07T14:52:21.096Z,5.83
2018-07-07T14:55:02.295Z,11.57
2018-07-07T14:57:42.138Z,4.93
2018-07-07T15:00:20.927Z,11.63
2018-07-07T15:02:58.637Z,13.10
2018-07-07T15:05:30.394Z,5.50
2018-07-07T15:08:15.073Z,5.60
2018-07-07T15:11:03.597Z,6.83
2018-07-07T15:13:40.932Z,8.40
2018-07-07T15:16:14.123Z,10.37
2018-07-07T15:18:48.388Z,13.67
2018-07-07T15:21:23.271Z,5.70
2018-07-07T15:23:57.029Z,10.73
2018-07-07T15:26:34.617Z,8.63
2018-07-07T15:29:10.373Z,8.80
2018-07-07T15:31:49.072Z,4.70
2018-07-07T15:34:19.490Z,8.47
2018-07-07T15:37:00.844Z,7.77
2018-07-07T15:39:41.026Z,7.10
2018-07-07T15:42:11.044Z,10.77
2018-07-07T15:44:44.939Z,6.60
2018-07-07T15:47:14.757Z,8.87
2018-07-07T15:49:45.855Z,7.63
2018-07-07T15:52:16.009Z,12.43
2018-07-07T15:54:47.124Z,5.90
2018-07-07T15:57:20.295Z,16.73
2018-07-07T15:59:50.747Z,6.30
2018-07-07T16:02:26.145Z,10.00
2018-07-07T16:04:58.124Z,12.33
2018-07-07T16:07:30.336Z,6.20
2018-07-07T16:10:03.065Z,10.53
2018-07-07T16:12:33.617Z,5.23
2018-07-07T16:15:12.140Z,3.23
2018-07-07T16:17:49.319Z,6.27
2018-07-07T16:20:21.227Z,16.60
2018-07-07T16:22:53.543Z,19.40
2018-07-07T16:25:36.903Z,5.53
2018-07-07T16:28:13.078Z,10.87
2018-07-07T16:30:50.891Z,3.97
2018-07-07T16:33:25.325Z,9.37
2018-07-07T16:35:57.584Z,8.90
2018-07-07T16:38:30.234Z,8.30
2018-07-07T16:41:18.923Z,7.10
2018-07-07T16:43:52.254Z,6.30
2018-07-07T16:46:28.289Z,24.10
2018-07-07T16:49:03.270Z,13.43
2018-07-07T16:51:38.505Z,4.57
2018-07-07T16:54:09.265Z,9.23
2018-07-07T16:59:34.598Z,6.03
2018-07-07T17:02:10.076Z,6.97
2018-07-07T17:04:41.720Z,11.43
2018-07-07T17:07:15.602Z,7.10
2018-07-07T17:09:47.228Z,8.57
2018-07-07T17:12:31.725Z,7.00
2018-07-07T17:15:06.442Z,6.93
2018-07-07T17:17:40.993Z,15.30
2018-07-07T17:20:14.441Z,7.33
2018-07-07T17:22:55.189Z,8.87
2018-07-07T17:30:54.750Z,8.30
2018-07-07T17:33:30.674Z,7.70
2018-07-07T17:36:07.274Z,16.87
2018-07-07T17:38:51.168Z,8.33
2018-07-07T17:41:29.664Z,7.67
2018-07-07T17:44:13.116Z,16.90
2018-07-07T17:46:46.711Z,10.13
2018-07-07T17:49:22.319Z,8.30
2018-07-07T17:54:37.213Z,20.97
2018-07-07T17:59:58.245Z,15.70
2018-07-07T18:05:19.470Z,9.57
2018-07-07T18:07:55.879Z,11.50
2018-07-07T18:10:34.371Z,9.30
2018-07-07T18:14:11.619Z,9.70
2018-07-07T18:16:48.841Z,11.53
2018-07-07T18:19:39.057Z,11.20
2018-07-07T18:22:19.780Z,10.47
2018-07-07T18:24:59.317Z,7.60
2018-07-07T18:27:41.064Z,17.87
2018-07-07T18:30:19.792Z,11.07
2018-07-07T18:32:53.022Z,12.53
2018-07-07T18:35:26.394Z,13.43
2018-07-07T18:38:01.393Z,7.83
2018-07-07T18:40:38.997Z,10.90
2018-07-07T18:43:13.672Z,12.63
2018-07-07T18:45:53.057Z,8.93
2018-07-07T18:48:23.240Z,10.80
2018-07-07T18:50:56.995Z,14.40
2018-07-07T18:53:37.531Z,8.93
2018-07-07T18:56:29.064Z,7.47
2018-07-07T18:59:06.278Z,9.73
2018-07-07T19:01:40.966Z,9.07
2018-07-07T19:04:20.458Z,7.70
2018-07-07T19:06:56.407Z,11.20
2018-07-07T19:09:32.574Z,10.17
2018-07-07T19:12:10.105Z,9.20
2018-07-07T19:14:45.686Z,10.63
2018-07-07T19:17:17.500Z,11.70
2018-07-07T19:19:56.719Z,6.20
2018-07-07T19:22:32.985Z,11.17
2018-07-07T19:25:11.535Z,14.30
2018-07-07T19:27:47.482Z,11.93
2018-07-07T19:30:19.256Z,11.53
2018-07-07T19:32:59.778Z,8.47
2018-07-07T19:35:37.275Z,7.20
2018-07-07T19:38:10.200Z,7.10
2018-07-07T19:43:19.717Z,13.20
2018-07-07T19:45:49.477Z,11.93
2018-07-07T19:48:26.925Z,8.60
2018-07-07T19:51:02.054Z,11.30
2018-07-07T19:53:39.159Z,16.27
2018-07-07T19:56:15.363Z,11.93
2018-07-07T19:58:47.533Z,8.70
2018-07-07T20:01:18.774Z,8.77
2018-07-07T20:03:55.566Z,10.77
2018-07-07T20:06:26.388Z,13.00
2018-07-07T20:08:59.679Z,10.03
2018-07-07T20:11:34.243Z,6.80
2018-07-07T20:14:04.941Z,7.27
2018-07-07T20:16:46.097Z,12.10
2018-07-07T20:19:28.054Z,7.40
2018-07-07T20:22:01.874Z,13.83
2018-07-07T20:24:38.780Z,11.83
2018-07-07T20:27:19.754Z,7.60
2018-07-07T20:29:52.105Z,17.97
2018-07-07T20:32:29.258Z,11.47
2018-07-07T20:35:04.691Z,11.37
2018-07-07T20:37:37.085Z,11.13
2018-07-07T20:40:14.326Z,10.40
2018-07-07T20:42:44.837Z,8.90
2018-07-07T20:45:15.620Z,11.53
2018-07-07T20:47:50.985Z,9.67
2018-07-07T20:50:21.805Z,10.13
2018-07-07T20:56:32.720Z,10.87
2018-07-07T20:59:02.530Z,10.93
2018-07-07T21:01:35.190Z,6.07
2018-07-07T21:04:05.512Z,12.30
2018-07-07T21:06:36.174Z,11.93
2018-07-07T21:09:08.352Z,18.57
2018-07-07T21:11:40.613Z,6.70
2018-07-07T21:14:15.226Z,9.37
2018-07-07T21:16:53.354Z,14.27
2018-07-07T21:19:24.645Z,6.80
2018-07-07T21:21:55.432Z,8.50
2018-07-07T21:24:31.611Z,9.97
2018-07-07T21:27:05.221Z,6.30
2018-07-07T21:29:47.378Z,11.33
2018-07-07T21:32:25.288Z,6.50
2018-07-07T21:35:04.452Z,7.20
2018-07-07T21:37:37.012Z,11.27
2018-07-07T21:40:14.555Z,12.43
2018-07-07T21:42:47.359Z,12.70
2018-07-07T21:45:20.184Z,5.27
2018-07-07T21:47:59.292Z,16.03
2018-07-07T21:50:44.376Z,8.43
2018-07-07T21:53:18.978Z,8.17
2018-07-07T21:55:51.271Z,8.77
2018-07-07T21:58:29.632Z,9.37
2018-07-07T22:01:17.734Z,10.43
2018-07-07T22:03:53.992Z,11.60
2018-07-07T22:06:30.263Z,10.57
2018-07-07T22:09:03.788Z,7.73
2018-07-07T22:11:35.486Z,13.60
2018-07-07T22:14:06.305Z,7.87
2018-07-07T22:16:37.846Z,9.07
2018-07-07T22:19:10.131Z,10.13
2018-07-07T22:22:08.193Z,6.97
2018-07-07T22:24:42.557Z,9.63
2018-07-07T22:27:13.607Z,8.43
2018-07-07T22:29:43.462Z,11.30
2018-07-07T22:32:21.626Z,19.37
2018-07-07T22:34:53.155Z,14.43
2018-07-07T22:37:22.739Z,9.40
2018-07-07T22:39:53.319Z,13.23
2018-07-07T22:42:23.666Z,11.63
2018-07-07T22:44:54.084Z,12.93
2018-07-07T22:47:28.812Z,10.83
2018-07-07T22:49:58.454Z,9.90
2018-07-07T22:52:28.583Z,12.37
2018-07-07T22:54:59.497Z,11.57
2018-07-07T22:57:29.599Z,19.30
2018-07-07T23:00:02.642Z,13.10
2018-07-07T23:02:31.867Z,14.77
2018-07-07T23:05:01.551Z,7.93
2018-07-07T23:07:31.687Z,17.60
2018-07-07T23:10:08.165Z,7.33
2018-07-07T23:12:39.718Z,10.10
2018-07-07T23:15:10.647Z,11.43
2018-07-07T23:17:43.298Z,7.03
2018-07-07T23:20:12.519Z,7.10
2018-07-07T23:22:52.635Z,10.83
2018-07-07T23:25:22.101Z,9.23
2018-07-07T23:27:51.787Z,7.50
2018-07-07T23:30:21.637Z,10.10
2018-07-07T23:32:51.656Z,6.37
2018-07-07T23:35:20.777Z,12.70
2018-07-07T23:37:50.034Z,10.17
2018-07-07T23:40:19.046Z,13.60
2018-07-07T23:42:48.750Z,11.23
2018-07-07T23:45:18.112Z,10.87
2018-07-07T23:47:47.362Z,8.40
2018-07-07T23:50:16.683Z,12.30
2018-07-07T23:52:45.793Z,12.13
2018-07-07T23:55:15.028Z,11.47
2018-07-07T23:57:44.160Z,8.10
